Time;durP1;ratioP1;P1;durP2;ratioP2;P2;SDS_P1;SDS_P2;PMS_P1;PMS_P2;Temp;Humidity;BMP_temperature;BMP_pressure;BME280_temperature;BME280_humidity;BME280_pressure;Samples;Min_cycle;Max_cycle;Signal;HPM_P1;HPM_P2
2020/12/11 00:04:51;;;;;;;53.4;40.8;;;;;;;-1.42;85.13574;97994.36;;;;
2020/12/11 00:14:51;;;;;;;60.5;45.4;;;;;;;-1.3;85.3252;97992.41;;;;
2020/12/11 00:24:46;;;;;;;60.6;41.5;;;;;;;-1.22;85.33984;97996.48;;;;
2020/12/11 00:34:44;;;;;;;57.4;42.4;;;;;;;-1.21;85.41992;98006.78;;;;
2020/12/11 00:44:41;;;;;;;63.4;47.1;;;;;;;-1.1;85.27734;98013.8;;;;
2020/12/11 00:54:39;;;;;;;67.1;50.7;;;;;;;-1.04;85.13477;98001.42;;;;
2020/12/11 01:04:37;;;;;;;55;44.5;;;;;;;-1.05;85.42969;98005.94;;;;
2020/12/11 01:14:34;;;;;;;68.4;46.1;;;;;;;-0.96;85.54492;98002.84;;;;
2020/12/11 01:24:34;;;;;;;61.1;43.1;;;;;;;-0.94;85.02441;98004.21;;;;
2020/12/11 01:34:29;;;;;;;62.2;43.9;;;;;;;-1.17;85.34082;97994.67;;;;
2020/12/11 01:44:27;;;;;;;57.6;46.6;;;;;;;-1.09;85.37695;97993.45;;;;
2020/12/11 01:54:25;;;;;;;49.5;41.9;;;;;;;-0.96;85.0752;97993.06;;;;
2020/12/11 02:04:22;;;;;;;58.3;42.1;;;;;;;-1.16;85.50586;97979.62;;;;
2020/12/11 02:14:20;;;;;;;69.4;48;;;;;;;-1.34;85.42578;97967.52;;;;
2020/12/11 02:24:17;;;;;;;73;54.6;;;;;;;-1.73;85.29199;97960.66;;;;
2020/12/11 02:34:15;;;;;;;60;42.8;;;;;;;-2.13;85.55176;97945.86;;;;
2020/12/11 02:44:12;;;;;;;61.2;39.2;;;;;;;-2.36;85.10156;97938.09;;;;
2020/12/11 02:54:10;;;;;;;46.7;31.6;;;;;;;-2.64;85.77539;97943.47;;;;
2020/12/11 03:04:10;;;;;;;55;35.5;;;;;;;-2.88;85.55176;97928.81;;;;
2020/12/11 03:14:05;;;;;;;48.6;32;;;;;;;-3.16;85.38867;97940.94;;;;
2020/12/11 03:24:02;;;;;;;36.4;32.4;;;;;;;-3.43;86.40918;97939.09;;;;
2020/12/11 03:33:59;;;;;;;53.6;34.6;;;;;;;-3.67;86.26367;97946.25;;;;
2020/12/11 03:43:57;;;;;;;59.9;33.2;;;;;;;-3.92;86.86523;97953.63;;;;
2020/12/11 03:53:54;;;;;;;55.3;34.4;;;;;;;-4.17;87.77148;97962.56;;;;
2020/12/11 04:03:52;;;;;;;78.3;48.7;;;;;;;-4.33;87.07422;97957.16;;;;
2020/12/11 04:13:49;;;;;;;56.3;33.9;;;;;;;-4.4;87.71094;97980.13;;;;
2020/12/11 04:23:48;;;;;;;47.1;33.4;;;;;;;-4.48;87.53125;97977.85;;;;
2020/12/11 04:33:42;;;;;;;73.7;53.5;;;;;;;-4.57;88.24023;97979.99;;;;
2020/12/11 04:43:40;;;;;;;87.4;60.5;;;;;;;-4.47;89.69434;97977.61;;;;
2020/12/11 04:53:37;;;;;;;78.8;49.2;;;;;;;-4.56;89.11133;97986.86;;;;
2020/12/11 05:03:34;;;;;;;44.2;33.2;;;;;;;-4.68;88.13086;97980.76;;;;
2020/12/11 05:13:31;;;;;;;52.9;34.6;;;;;;;-4.87;87.85352;97985.3;;;;
2020/12/11 05:23:28;;;;;;;61;38.6;;;;;;;-4.98;87.7207;98014.14;;;;
2020/12/11 05:33:25;;;;;;;60.6;42.4;;;;;;;-5.09;88.06836;98005.98;;;;
2020/12/11 05:43:22;;;;;;;55.2;41.6;;;;;;;-5.17;88.33203;97989.75;;;;
2020/12/11 05:53:19;;;;;;;58.7;37.4;;;;;;;-5.11;88.49805;98005.42;;;;
2020/12/11 06:03:16;;;;;;;52.3;34.9;;;;;;;-5.05;88.98633;98003.72;;;;
2020/12/11 06:13:15;;;;;;;50.6;35.1;;;;;;;-5.07;87.42188;98019.69;;;;
2020/12/11 06:23:10;;;;;;;58.3;36.3;;;;;;;-5.21;86.74414;98020.91;;;;
2020/12/11 06:33:07;;;;;;;46.9;31.5;;;;;;;-5.26;86.12598;98012.88;;;;
2020/12/11 06:43:04;;;;;;;44.5;31.7;;;;;;;-5.33;86.31543;98024.47;;;;
2020/12/11 06:53:01;;;;;;;53.2;30.5;;;;;;;-5.36;85.47559;98002.09;;;;
2020/12/11 07:02:58;;;;;;;50.6;35.5;;;;;;;-5.43;85.4502;98017.12;;;;
2020/12/11 07:12:55;;;;;;;65.5;39.1;;;;;;;-5.15;85.2373;98022.64;;;;
2020/12/11 07:22:54;;;;;;;69.6;43.4;;;;;;;-4.89;84.36719;98013.6;;;;
2020/12/11 07:32:51;;;;;;;58.5;35.6;;;;;;;-5.04;84.3252;97997.45;;;;
2020/12/11 07:42:50;;;;;;;65.5;40.8;;;;;;;-4.78;84.90918;98001.53;;;;
2020/12/11 07:52:43;;;;;;;52.6;36.8;;;;;;;-4.42;85.08105;97988.27;;;;
2020/12/11 08:02:41;;;;;;;66.4;41.6;;;;;;;-4.06;84.69629;97988.05;;;;
2020/12/11 08:12:39;;;;;;;43.8;32.7;;;;;;;-3.49;85.7666;98001.41;;;;
2020/12/11 08:22:35;;;;;;;46.3;30.8;;;;;;;-3.43;87.72852;98011.02;;;;
2020/12/11 08:32:32;;;;;;;39;34.1;;;;;;;-2.89;86.49805;98004.45;;;;
2020/12/11 08:42:33;;;;;;;49.5;30.1;;;;;;;-2.86;86.59082;98016.36;;;;
2020/12/11 08:52:27;;;;;;;34;26.6;;;;;;;-2.46;87.80762;98013.67;;;;
2020/12/11 09:02:26;;;;;;;48.1;41;;;;;;;-2.28;87.18066;97998.39;;;;
2020/12/11 09:12:25;;;;;;;47.4;31.7;;;;;;;-2.2;86.84766;97992.73;;;;
2020/12/11 09:22:20;;;;;;;58;36.1;;;;;;;-1.88;85.87402;97978.95;;;;
2020/12/11 09:32:24;;;;;;;56;36.2;;;;;;;-1.68;86.50586;97984.51;;;;
2020/12/11 09:42:37;;;;;;;40.6;31.8;;;;;;;-1.21;85.9668;97985.64;;;;
2020/12/11 09:52:25;;;;;;;103.8;75.3;;;;;;;-1.01;85.17676;97964.71;;;;
2020/12/11 10:02:16;;;;;;;59;45.5;;;;;;;-0.88;84.02832;97958.25;;;;
2020/12/11 10:12:08;;;;;;;55.4;41.4;;;;;;;-0.97;83.72461;97958.95;;;;
2020/12/11 10:22:05;;;;;;;52.9;36.5;;;;;;;-0.77;83.27148;97954.66;;;;
2020/12/11 10:32:03;;;;;;;58.2;40.1;;;;;;;-1.06;84.61621;97940.07;;;;
2020/12/11 10:42:01;;;;;;;51.9;39.6;;;;;;;-0.75;83.46094;97927.94;;;;
2020/12/11 10:51:58;;;;;;;64.5;48.2;;;;;;;-0.9;84.05762;97920.66;;;;
2020/12/11 11:01:56;;;;;;;59.9;40.7;;;;;;;-1.15;85.25684;97905.36;;;;
2020/12/11 11:11:59;;;;;;;61.5;41.3;;;;;;;-0.83;85.48438;97899.32;;;;
2020/12/11 11:31:49;;;;;;;58;37.4;;;;;;;-0.69;83.94531;97866.88;;;;
2020/12/11 11:41:54;;;;;;;56.6;45.3;;;;;;;-0.81;84.66602;97855.69;;;;
2020/12/11 11:51:51;;;;;;;62.5;44.6;;;;;;;-1.17;86.17285;97857.2;;;;
2020/12/11 12:01:44;;;;;;;62.5;48;;;;;;;-1.18;86.4541;97852.95;;;;
2020/12/11 12:11:40;;;;;;;65.3;43;;;;;;;-1.28;87.1123;97847.58;;;;
2020/12/11 12:21:54;;;;;;;64.7;46.4;;;;;;;-1.32;87.25879;97862.33;;;;
2020/12/11 12:31:38;;;;;;;55.2;41.1;;;;;;;-1.08;86.56152;97844.34;;;;
2020/12/11 12:51:31;;;;;;;68.7;47.9;;;;;;;-1.47;87.25781;97833.13;;;;
2020/12/11 13:01:35;;;;;;;48.6;38.1;;;;;;;-1.19;86.75879;97821.5;;;;
2020/12/11 13:11:27;;;;;;;70.3;47.5;;;;;;;-1.7;88.16309;97823.61;;;;
2020/12/11 13:21:30;;;;;;;58.9;47.5;;;;;;;-1.55;88.47656;97817.7;;;;
2020/12/11 13:31:22;;;;;;;48;32.1;;;;;;;-1.48;88.58105;97813.02;;;;
2020/12/11 13:41:23;;;;;;;57.9;36.1;;;;;;;-1.44;88.30273;97813.32;;;;
2020/12/11 13:51:19;;;;;;;62.7;42.8;;;;;;;-1.64;89.32129;97808.64;;;;
2020/12/11 14:01:18;;;;;;;43.9;34.9;;;;;;;-1.56;88.88086;97808.98;;;;
2020/12/11 14:11:13;;;;;;;59.3;44.9;;;;;;;-1.51;88.74902;97816.16;;;;
2020/12/11 14:21:29;;;;;;;63.1;34;;;;;;;-1.41;88.49414;97804.89;;;;
2020/12/11 14:31:08;;;;;;;29.9;22.4;;;;;;;-1.49;88.47754;97797.44;;;;
2020/12/11 14:41:06;;;;;;;31;26.2;;;;;;;-1.88;90.52832;97789.63;;;;
2020/12/11 14:51:03;;;;;;;37.6;30.2;;;;;;;-1.72;89.86133;97787.94;;;;
2020/12/11 15:01:01;;;;;;;34.4;22.7;;;;;;;-1.88;90.53906;97784.34;;;;
2020/12/11 15:11:00;;;;;;;44.8;30.9;;;;;;;-1.99;90.50293;97769.43;;;;
2020/12/11 15:20:56;;;;;;;63.7;47.4;;;;;;;-1.88;90.47168;97772.98;;;;
2020/12/11 15:30:54;;;;;;;35.9;27.8;;;;;;;-1.83;90.43945;97770.38;;;;
2020/12/11 15:40:51;;;;;;;34.8;31.2;;;;;;;-2;91.29785;97761.74;;;;
2020/12/11 15:50:50;;;;;;;37.5;31.4;;;;;;;-1.96;91.21777;97754.93;;;;
2020/12/11 16:00:49;;;;;;;33.5;26.5;;;;;;;-1.94;91.68164;97761.55;;;;
2020/12/11 16:10:44;;;;;;;36.1;30.2;;;;;;;-1.94;92.53027;97763.42;;;;
2020/12/11 16:20:41;;;;;;;71.3;53.3;;;;;;;-1.85;91.7998;97749.52;;;;
2020/12/11 16:30:39;;;;;;;54.4;40.5;;;;;;;-1.63;91.64941;97752.09;;;;
2020/12/11 16:40:37;;;;;;;45.7;33.4;;;;;;;-1.51;91.14063;97726.33;;;;
2020/12/11 16:50:34;;;;;;;53.1;44.1;;;;;;;-1.45;91.38379;97722.68;;;;
2020/12/11 17:00:36;;;;;;;45.5;38;;;;;;;-1.21;90.91113;97700.14;;;;
2020/12/11 17:10:29;;;;;;;47.4;36.6;;;;;;;-1.2;90.51953;97683.24;;;;
2020/12/11 17:20:27;;;;;;;40.1;31.2;;;;;;;-1.02;90.66699;97709.28;;;;
2020/12/11 17:30:28;;;;;;;32.8;26.3;;;;;;;-0.96;90.25293;97718.03;;;;
2020/12/11 17:40:22;;;;;;;46.8;29.7;;;;;;;-0.88;90.20313;97711.48;;;;
2020/12/11 17:50:20;;;;;;;49.4;34.3;;;;;;;-0.84;89.77441;97694.84;;;;
2020/12/11 18:00:17;;;;;;;50;34.3;;;;;;;-0.7;89.40918;97703.13;;;;
2020/12/11 18:10:16;;;;;;;53.3;38.7;;;;;;;-0.84;89.50098;97686.11;;;;
2020/12/11 18:20:13;;;;;;;43.4;31.9;;;;;;;-0.85;89.6416;97672.09;;;;
2020/12/11 18:30:12;;;;;;;37.8;26.4;;;;;;;-0.84;90.22363;97662.31;;;;
2020/12/11 18:40:08;;;;;;;47.2;35;;;;;;;-0.86;90.5459;97653.81;;;;
2020/12/11 18:50:06;;;;;;;46.5;35.2;;;;;;;-0.86;90.70117;97651.97;;;;
2020/12/11 19:00:03;;;;;;;57.7;36.4;;;;;;;-0.84;91.12012;97657.02;;;;
2020/12/11 19:10:01;;;;;;;48.7;38.8;;;;;;;-0.78;91.00195;97648.84;;;;
2020/12/11 19:19:59;;;;;;;46.1;34.8;;;;;;;-0.81;90.5459;97635.34;;;;
2020/12/11 19:29:56;;;;;;;48.5;35.2;;;;;;;-0.72;90.54297;97649.66;;;;
2020/12/11 19:39:54;;;;;;;45.5;34.8;;;;;;;-0.74;90.78027;97628.77;;;;
2020/12/11 19:49:53;;;;;;;53.7;38.1;;;;;;;-1;91.59961;97616.46;;;;
2020/12/11 19:59:52;;;;;;;46.5;33.1;;;;;;;-1.08;92.08496;97630.19;;;;
2020/12/11 20:09:50;;;;;;;53.5;38.3;;;;;;;-1.05;91.53418;97634.96;;;;
2020/12/11 20:19:45;;;;;;;40.5;33;;;;;;;-0.98;91.41797;97629.44;;;;
2020/12/11 20:29:42;;;;;;;50.3;35.7;;;;;;;-1.06;91.26074;97626.23;;;;
2020/12/11 20:39:40;;;;;;;40.4;29.2;;;;;;;-1.07;91.62793;97610.61;;;;
2020/12/11 20:49:38;;;;;;;43.3;31.4;;;;;;;-1.04;91.50488;97595.03;;;;
2020/12/11 20:59:35;;;;;;;43.6;35.9;;;;;;;-1.12;91.77148;97595.53;;;;
2020/12/11 21:09:35;;;;;;;44.6;34.6;;;;;;;-1.02;91.5957;97590.3;;;;
2020/12/11 21:19:31;;;;;;;38.1;31.9;;;;;;;-0.89;91.13086;97593.51;;;;
2020/12/11 21:29:29;;;;;;;38.2;27.3;;;;;;;-0.8;90.99902;97600.69;;;;
2020/12/11 21:39:26;;;;;;;43.1;28.6;;;;;;;-0.68;90.46289;97595.18;;;;
2020/12/11 21:49:24;;;;;;;46.9;33;;;;;;;-0.94;90.51758;97590.86;;;;
2020/12/11 21:59:22;;;;;;;45.2;32;;;;;;;-0.84;90.5293;97582.97;;;;
2020/12/11 22:09:19;;;;;;;47.2;32.5;;;;;;;-0.87;90.42383;97578.2;;;;
2020/12/11 22:19:17;;;;;;;47;34.4;;;;;;;-0.89;90.19043;97567.86;;;;
2020/12/11 22:29:15;;;;;;;47.1;30.6;;;;;;;-1.13;90.84082;97575.43;;;;
2020/12/11 22:39:12;;;;;;;49.4;32.2;;;;;;;-1.1;90.87891;97569.63;;;;
2020/12/11 22:49:10;;;;;;;41.2;31.4;;;;;;;-1.12;90.89551;97568.3;;;;
2020/12/11 22:59:08;;;;;;;42.9;28.7;;;;;;;-0.98;90.56445;97576.55;;;;
2020/12/11 23:09:05;;;;;;;36.1;29.9;;;;;;;-1.02;90.4043;97566.5;;;;
2020/12/11 23:19:03;;;;;;;51.5;35.6;;;;;;;-1.08;90.15039;97550.88;;;;
2020/12/11 23:29:01;;;;;;;43.4;31.3;;;;;;;-1.13;90.13867;97556.13;;;;
2020/12/11 23:38:59;;;;;;;37.5;27.3;;;;;;;-1.11;90.4834;97559.32;;;;
2020/12/11 23:48:56;;;;;;;38.4;28.9;;;;;;;-1.06;89.68359;97554.04;;;;
2020/12/11 23:58:54;;;;;;;39.1;24.9;;;;;;;-1.21;90.22266;97551.31;;;;
